Time;durP1;ratioP1;P1;durP2;ratioP2;P2;SDS_P1;SDS_P2;PMS_P1;PMS_P2;Temp;Humidity;BMP_temperature;BMP_pressure;BME280_temperature;BME280_humidity;BME280_pressure;Samples;Min_cycle;Max_cycle;Signal;HPM_P1;HPM_P2
2022/12/28 00:00:29;;;;;;;6.22;1.30;;;;;;;4.67;100.00;101328.22;2064014;28;20320;-73
2022/12/28 00:01:35;;;;;;;4.15;1.00;;;;;;;4.68;100.00;101326.44;2062557;28;41028;-72
2022/12/28 00:02:37;;;;;;;5.13;0.85;;;;;;;4.69;100.00;101325.59;2063693;28;40368;-73
2022/12/28 00:03:39;;;;;;;8.68;1.27;;;;;;;4.68;100.00;101323.78;2070695;28;38507;-73
2022/12/28 00:04:40;;;;;;;6.55;1.20;;;;;;;4.68;100.00;101311.41;2071609;28;36175;-73
2022/12/28 00:05:42;;;;;;;8.02;1.30;;;;;;;4.69;100.00;101322.94;2063650;28;20043;-73
2022/12/28 00:06:44;;;;;;;4.88;1.20;;;;;;;4.68;100.00;101305.22;2062802;28;39707;-73
2022/12/28 00:07:48;;;;;;;10.13;1.27;;;;;;;4.69;100.00;101307.03;2072191;28;20035;-72
2022/12/28 00:08:54;;;;;;;6.47;1.10;;;;;;;4.69;100.00;101309.66;2071507;28;39181;-73
2022/12/28 00:09:56;;;;;;;5.20;1.17;;;;;;;4.69;100.00;101304.38;2071242;28;40627;-72
2022/12/28 00:11:09;;;;;;;8.02;1.30;;;;;;;4.69;100.00;101307.03;2072306;28;23057;-73
2022/12/28 00:12:16;;;;;;;6.55;0.80;;;;;;;4.69;100.00;101301.72;2071224;28;37601;-73
2022/12/28 00:13:18;;;;;;;6.45;1.13;;;;;;;4.70;100.00;101285.81;2062551;28;42494;-73
2022/12/28 00:14:22;;;;;;;7.75;1.30;;;;;;;4.70;100.00;101288.47;2063486;28;20043;-72
2022/12/28 00:15:27;;;;;;;3.15;1.08;;;;;;;4.70;100.00;101280.50;2071428;28;39164;-73
2022/12/28 00:16:35;;;;;;;6.60;1.27;;;;;;;4.71;100.00;101281.38;2071768;28;37327;-72
2022/12/28 00:17:37;;;;;;;5.13;1.58;;;;;;;4.70;100.00;101266.34;2062826;28;38491;-73
2022/12/28 00:18:38;;;;;;;6.78;1.10;;;;;;;4.70;100.00;101275.22;2064283;28;36753;-73
2022/12/28 00:19:40;;;;;;;8.23;1.13;;;;;;;4.72;100.00;101269.88;2062845;28;37532;-74
2022/12/28 00:20:42;;;;;;;5.93;1.20;;;;;;;4.72;100.00;101272.53;2062828;28;41154;-75
2022/12/28 00:21:46;;;;;;;6.47;0.95;;;;;;;4.71;100.00;101268.13;2070263;28;42391;-73
2022/12/28 00:22:48;;;;;;;6.63;0.90;;;;;;;4.69;100.00;101275.19;2071460;28;35543;-74
2022/12/28 00:23:51;;;;;;;5.60;1.02;;;;;;;4.70;100.00;101269.00;2071384;28;38247;-74
2022/12/28 00:24:53;;;;;;;5.82;1.17;;;;;;;4.72;100.00;101269.88;2071540;28;35090;-74
2022/12/28 00:25:55;;;;;;;5.55;1.20;;;;;;;4.70;100.00;101269.91;2071308;28;41015;-72
2022/12/28 00:26:57;;;;;;;6.55;1.38;;;;;;;4.67;100.00;101271.66;2062310;28;39188;-72
2022/12/28 00:27:59;;;;;;;5.97;1.33;;;;;;;4.65;100.00;101266.31;2064063;28;20869;-72
2022/12/28 00:29:01;;;;;;;3.95;1.08;;;;;;;4.65;100.00;101270.72;2063298;28;27348;-74
2022/12/28 00:30:09;;;;;;;6.68;0.98;;;;;;;4.67;100.00;101269.88;2064082;28;23343;-74
2022/12/28 00:31:12;;;;;;;6.68;1.08;;;;;;;4.69;100.00;101264.59;2070908;28;34012;-74
2022/12/28 00:32:14;;;;;;;6.82;0.90;;;;;;;4.68;100.00;101263.66;2070971;28;35039;-74
2022/12/28 00:33:15;;;;;;;3.92;0.82;;;;;;;4.68;100.00;101268.09;2071608;28;26346;-74
2022/12/28 00:34:19;;;;;;;5.90;0.90;;;;;;;4.65;100.00;101270.72;2063363;28;20558;-74
2022/12/28 00:35:21;;;;;;;4.28;1.08;;;;;;;4.66;100.00;101272.50;2063000;28;20043;-75
2022/12/28 00:36:25;;;;;;;7.10;1.15;;;;;;;4.68;100.00;101270.75;2071011;28;31452;-74
2022/12/28 00:37:47;;;;;;;7.72;1.00;;;;;;;4.72;100.00;101262.84;2072490;28;20806;-74
2022/12/28 00:38:48;;;;;;;8.55;0.98;;;;;;;4.71;100.00;101265.47;2071409;28;35144;-73
2022/12/28 00:39:53;;;;;;;5.15;1.23;;;;;;;4.70;100.00;101274.28;2072678;28;20931;-74
2022/12/28 00:40:55;;;;;;;7.57;1.17;;;;;;;4.69;100.00;101273.41;2071130;28;20046;-73
2022/12/28 00:41:56;;;;;;;7.03;0.98;;;;;;;4.72;100.00;101267.22;2070481;28;35669;-74
2022/12/28 00:43:01;;;;;;;4.03;0.93;;;;;;;4.71;100.00;101266.34;2071039;28;28546;-74
2022/12/28 00:44:04;;;;;;;4.88;0.80;;;;;;;4.73;100.00;101269.00;2072341;28;20938;-74
2022/12/28 00:45:06;;;;;;;4.07;1.15;;;;;;;4.74;100.00;101266.38;2062469;28;35854;-74
2022/12/28 00:46:09;;;;;;;7.50;1.23;;;;;;;4.72;100.00;101267.22;2062948;28;40048;-74
2022/12/28 00:47:11;;;;;;;3.67;0.90;;;;;;;4.71;100.00;101266.34;2071281;28;20942;-74
2022/12/28 00:48:14;;;;;;;4.00;0.90;;;;;;;4.72;100.00;101267.22;2072576;28;20046;-74
2022/12/28 00:49:15;;;;;;;10.73;1.20;;;;;;;4.70;100.00;101269.00;2071375;28;35989;-74
2022/12/28 00:50:17;;;;;;;7.75;1.23;;;;;;;4.68;100.00;101274.28;2072357;28;20881;-74
2022/12/28 00:51:19;;;;;;;4.60;0.90;;;;;;;4.66;100.00;101267.19;2071445;28;32006;-74
2022/12/28 00:52:21;;;;;;;7.55;1.13;;;;;;;4.66;100.00;101267.19;2071561;28;30365;-74
2022/12/28 00:53:24;;;;;;;8.20;1.23;;;;;;;4.66;100.00;101261.91;2071413;28;20195;-74
2022/12/28 00:54:26;;;;;;;6.00;0.90;;;;;;;4.67;100.00;101263.69;2062617;28;38309;-74
2022/12/28 00:55:28;;;;;;;5.20;1.40;;;;;;;4.66;100.00;101262.78;2063640;28;20086;-74
2022/12/28 00:56:30;;;;;;;5.68;1.13;;;;;;;4.66;100.00;101257.47;2071641;28;32756;-74
2022/12/28 00:57:32;;;;;;;4.97;0.85;;;;;;;4.65;100.00;101255.72;2070479;28;30409;-74
2022/12/28 00:58:37;;;;;;;4.93;1.35;;;;;;;4.63;100.00;101253.91;2070822;28;32411;-74
2022/12/28 00:59:39;;;;;;;5.72;1.20;;;;;;;4.63;100.00;101254.81;2062706;28;33071;-73
2022/12/28 01:00:40;;;;;;;11.48;1.33;;;;;;;4.60;100.00;101246.84;2062902;28;39234;-74
2022/12/28 01:01:42;;;;;;;4.10;0.82;;;;;;;4.59;100.00;101245.97;2071705;28;37447;-74
2022/12/28 01:02:44;;;;;;;7.50;1.15;;;;;;;4.57;100.00;101255.63;2062748;28;37866;-74
2022/12/28 01:03:47;;;;;;;4.05;0.80;;;;;;;4.56;100.00;101245.94;2062964;28;34312;-74
2022/12/28 01:04:48;;;;;;;7.75;1.33;;;;;;;4.56;100.00;101243.28;2063134;28;22216;-74
2022/12/28 01:05:50;;;;;;;9.82;1.15;;;;;;;4.54;100.00;101237.09;2062491;28;39226;-74
2022/12/28 01:06:52;;;;;;;6.63;0.93;;;;;;;4.51;100.00;101233.53;2071304;28;20050;-74
2022/12/28 01:07:56;;;;;;;6.32;1.15;;;;;;;4.52;100.00;101236.19;2070559;28;37110;-75
2022/12/28 01:08:58;;;;;;;5.03;1.33;;;;;;;4.48;100.00;101230.84;2062997;28;32068;-74
2022/12/28 01:10:01;;;;;;;5.40;1.10;;;;;;;4.47;100.00;101232.63;2063421;28;20023;-74
2022/12/28 01:11:15;;;;;;;5.88;1.10;;;;;;;4.46;100.00;101230.81;2063219;28;23405;-74
2022/12/28 01:12:17;;;;;;;7.72;1.45;;;;;;;4.46;100.00;101225.53;2064470;28;32622;-74
2022/12/28 01:13:19;;;;;;;9.15;1.45;;;;;;;4.44;100.00;101219.34;2070526;28;35246;-74
2022/12/28 01:14:20;;;;;;;6.75;1.63;;;;;;;4.42;100.00;101223.75;2070643;28;32561;-74
2022/12/28 01:15:22;;;;;;;7.28;1.40;;;;;;;4.43;100.00;101227.28;2071865;28;30803;-74
2022/12/28 01:16:26;;;;;;;5.15;1.38;;;;;;;4.40;100.00;101222.84;2071342;28;35818;-74
2022/12/28 01:17:28;;;;;;;6.75;1.50;;;;;;;4.39;100.00;101221.06;2072205;28;20039;-74
2022/12/28 01:18:30;;;;;;;9.50;1.55;;;;;;;4.39;100.00;101215.75;2062603;28;31297;-74
2022/12/28 01:19:32;;;;;;;6.05;1.42;;;;;;;4.39;100.00;101221.06;2062890;28;33673;-74
2022/12/28 01:20:33;;;;;;;6.88;1.50;;;;;;;4.39;100.00;101207.81;2062525;28;31104;-74
2022/12/28 01:21:36;;;;;;;3.97;1.42;;;;;;;4.39;100.00;101208.69;2054743;28;30047;-74
2022/12/28 01:22:37;;;;;;;7.10;1.88;;;;;;;4.38;100.00;101209.56;2062551;28;33007;-74
2022/12/28 01:23:44;;;;;;;4.80;1.45;;;;;;;4.37;100.00;101212.22;2063489;28;20035;-74
2022/12/28 01:24:45;;;;;;;7.55;1.63;;;;;;;4.36;100.00;101206.03;2054725;28;34361;-74
2022/12/28 01:25:47;;;;;;;6.95;1.13;;;;;;;4.35;100.00;101206.91;2062816;28;25413;-74
2022/12/28 01:26:49;;;;;;;5.13;1.70;;;;;;;4.34;100.00;101197.19;2071170;28;33199;-74
2022/12/28 01:27:51;;;;;;;6.72;1.80;;;;;;;4.33;100.00;101205.13;2071778;28;20038;-72
2022/12/28 01:28:57;;;;;;;6.00;1.88;;;;;;;4.32;100.00;101187.44;2062533;28;34220;-74
2022/12/28 01:29:58;;;;;;;5.30;1.23;;;;;;;4.31;100.00;101190.97;2064002;28;27251;-74
2022/12/28 01:31:10;;;;;;;4.45;1.60;;;;;;;4.28;100.00;101189.19;2071759;28;20050;-74
2022/12/28 01:32:11;;;;;;;7.22;1.45;;;;;;;4.29;100.00;101192.69;2071667;28;31064;-74
2022/12/28 01:33:13;;;;;;;7.13;1.42;;;;;;;4.28;100.00;101188.28;2071462;28;31389;-75
2022/12/28 01:34:15;;;;;;;5.95;1.83;;;;;;;4.27;100.00;101181.22;2071332;28;20955;-74
2022/12/28 01:35:20;;;;;;;7.20;1.85;;;;;;;4.29;100.00;101176.81;2062903;28;20054;-74
2022/12/28 01:36:28;;;;;;;6.60;1.63;;;;;;;4.27;100.00;101175.91;2054741;28;26167;-74
2022/12/28 01:37:29;;;;;;;6.97;1.95;;;;;;;4.25;100.00;101164.41;2064009;28;20043;-73
2022/12/28 01:38:31;;;;;;;6.40;1.73;;;;;;;4.25;100.00;101156.47;2065005;28;20998;-75
2022/12/28 01:39:35;;;;;;;7.47;1.90;;;;;;;4.25;100.00;101159.13;2055840;28;35351;-71
2022/12/28 01:40:42;;;;;;;5.47;1.45;;;;;;;4.25;100.00;101159.13;2056494;28;35096;-74
2022/12/28 01:41:44;;;;;;;5.63;1.70;;;;;;;4.23;100.00;101164.41;2056866;28;32362;-73
2022/12/28 01:42:48;;;;;;;7.40;2.03;;;;;;;4.23;100.00;101156.44;2065230;28;20163;-72
2022/12/28 01:43:53;;;;;;;11.52;3.15;;;;;;;4.25;100.00;101161.75;2072531;28;35029;-73
2022/12/28 01:45:14;;;;;;;7.32;1.60;;;;;;;4.25;100.00;101153.81;2064422;28;20968;-75
2022/12/28 01:46:21;;;;;;;5.20;1.80;;;;;;;4.25;100.00;101159.13;2057781;28;37121;-73
2022/12/28 01:47:32;;;;;;;6.88;1.90;;;;;;;4.24;100.00;101149.41;2065296;28;37326;-73
2022/12/28 01:48:40;;;;;;;11.68;2.20;;;;;;;4.21;100.00;101137.88;2073706;28;20142;-72
2022/12/28 01:50:10;;;;;;;5.70;2.28;;;;;;;4.23;100.00;101140.56;2063688;28;29571;-74
2022/12/28 01:51:15;;;;;;;6.47;1.70;;;;;;;4.22;100.00;101133.50;2066755;28;20080;-74
2022/12/28 01:52:22;;;;;;;6.22;1.80;;;;;;;4.21;100.00;101132.59;2063539;28;36824;-74
2022/12/28 01:53:24;;;;;;;11.10;2.17;;;;;;;4.21;100.00;101132.59;2057698;28;20170;-73
2022/12/28 01:54:43;;;;;;;8.32;2.30;;;;;;;4.19;100.00;101139.63;2056658;28;20192;-72
2022/12/28 01:55:49;;;;;;;7.82;1.90;;;;;;;4.18;100.00;101129.94;2066432;28;20082;-73
2022/12/28 01:56:52;;;;;;;6.85;1.98;;;;;;;4.18;100.00;101126.38;2064215;28;20050;-74
2022/12/28 01:58:07;;;;;;;8.48;2.05;;;;;;;4.16;100.00;101121.09;2056412;28;21277;-73
2022/12/28 01:59:10;;;;;;;6.80;2.47;;;;;;;4.15;100.00;101121.97;2056529;28;20054;-74
2022/12/28 02:00:15;;;;;;;9.55;2.20;;;;;;;4.14;100.00;101112.22;2056446;28;20066;-74
2022/12/28 02:01:19;;;;;;;6.20;2.13;;;;;;;4.16;100.00;101112.25;2066019;28;20038;-73
2022/12/28 02:02:22;;;;;;;6.55;2.22;;;;;;;4.16;100.00;101113.16;2064159;28;20058;-73
2022/12/28 02:03:31;;;;;;;6.32;2.53;;;;;;;4.18;100.00;101122.00;2056505;28;21040;-74
2022/12/28 02:04:33;;;;;;;7.07;2.40;;;;;;;4.17;100.00;101103.44;2057138;28;30345;-74
2022/12/28 02:05:44;;;;;;;12.98;2.50;;;;;;;4.17;100.00;101101.66;2064841;28;32823;-74
2022/12/28 02:06:46;;;;;;;7.22;2.40;;;;;;;4.16;100.00;101094.59;2063378;28;42691;-74
2022/12/28 02:08:02;;;;;;;8.20;2.33;;;;;;;4.15;100.00;101094.59;2065842;28;20054;-74
2022/12/28 02:09:35;;;;;;;8.80;2.33;;;;;;;4.13;100.00;101085.75;2064554;28;20054;-74
2022/12/28 02:10:39;;;;;;;7.57;2.88;;;;;;;4.13;100.00;101083.09;2069609;28;33761;-74
2022/12/28 02:11:47;;;;;;;6.93;2.58;;;;;;;4.12;100.00;101082.19;2064881;28;20042;-74
2022/12/28 02:12:50;;;;;;;7.13;2.92;;;;;;;4.12;100.00;101078.66;2056883;28;21254;-74
2022/12/28 02:13:53;;;;;;;8.25;2.58;;;;;;;4.11;100.00;101072.47;2056545;28;20106;-74
2022/12/28 02:14:57;;;;;;;7.18;2.78;;;;;;;4.12;100.00;101070.72;2063833;28;33239;-74
2022/12/28 02:15:59;;;;;;;4.88;2.38;;;;;;;4.11;100.00;101068.94;2072236;28;29537;-75
2022/12/28 02:17:00;;;;;;;10.43;3.33;;;;;;;4.11;100.00;101061.88;2072683;28;22290;-74
2022/12/28 02:18:03;;;;;;;8.35;3.05;;;;;;;4.09;100.00;101050.41;2072347;28;31155;-74
2022/12/28 02:19:08;;;;;;;8.18;2.90;;;;;;;4.12;100.00;101057.47;2072213;28;36941;-74
2022/12/28 02:20:10;;;;;;;8.95;3.40;;;;;;;4.12;100.00;101053.03;2063969;28;32537;-74
2022/12/28 02:21:38;;;;;;;6.90;2.80;;;;;;;4.12;100.00;101049.50;2063900;28;36727;-74
2022/12/28 02:23:13;;;;;;;6.55;2.53;;;;;;;4.11;100.00;101051.28;2030887;29;33881;-73
2022/12/28 02:24:51;;;;;;;9.00;2.90;;;;;;;4.11;100.00;101040.69;2068356;28;30128;-75
2022/12/28 02:26:58;;;;;;;7.70;2.60;;;;;;;4.09;100.00;101034.50;2072946;28;27448;-75
2022/12/28 02:28:32;;;;;;;9.18;3.40;;;;;;;4.06;100.00;101026.53;2073150;28;20417;-74
2022/12/28 02:30:05;;;;;;;10.90;3.33;;;;;;;4.05;100.00;101019.44;2063651;28;36286;-74
2022/12/28 02:31:16;;;;;;;6.22;3.20;;;;;;;4.04;100.00;101024.72;2067943;28;28575;-74
2022/12/28 02:32:52;;;;;;;9.10;3.55;;;;;;;4.02;100.00;101022.09;2064242;28;20194;-73
2022/12/28 02:34:19;;;;;;;5.53;2.75;;;;;;;4.01;100.00;101007.94;2064268;28;30748;-74
2022/12/28 02:35:48;;;;;;;9.30;3.40;;;;;;;3.99;100.00;100999.09;2072015;28;34657;-73
2022/12/28 02:36:58;;;;;;;7.45;3.28;;;;;;;3.99;100.00;101000.88;2063988;28;33673;-73
2022/12/28 02:38:23;;;;;;;7.55;3.20;;;;;;;3.98;100.00;100993.78;2059057;28;36460;-74
2022/12/28 02:39:55;;;;;;;11.40;3.67;;;;;;;3.98;100.00;100993.78;2051917;28;33583;-73
2022/12/28 02:41:11;;;;;;;7.57;3.20;;;;;;;3.97;100.00;100981.44;2058786;28;23669;-75
2022/12/28 02:42:15;;;;;;;5.90;3.38;;;;;;;3.96;100.00;100982.31;2066262;28;21029;-74
2022/12/28 02:43:17;;;;;;;8.93;3.20;;;;;;;3.96;100.00;100977.00;2057220;28;20083;-74
2022/12/28 02:50:07;;;;;;;11.02;4.30;;;;;;;3.95;100.00;100962.91;2063113;28;34082;-77
2022/12/28 02:51:46;;;;;;;8.02;3.63;;;;;;;3.95;100.00;100954.06;2064816;28;20043;-74
2022/12/28 02:53:06;;;;;;;7.90;3.92;;;;;;;3.96;100.00;100951.41;2058339;28;39616;-74
2022/12/28 02:56:06;;;;;;;7.35;3.30;;;;;;;3.96;100.00;100946.09;2067587;28;20042;-75
2022/12/28 02:57:53;;;;;;;10.00;4.40;;;;;;;3.95;100.00;100949.66;2072295;28;31287;-76
2022/12/28 02:59:18;;;;;;;9.88;3.90;;;;;;;3.96;100.00;100945.22;2063280;28;30392;-74
2022/12/28 03:00:25;;;;;;;10.27;4.22;;;;;;;3.96;100.00;100947.88;2058481;28;20982;-74
2022/12/28 03:01:42;;;;;;;8.18;3.78;;;;;;;3.97;100.00;100954.97;2050906;28;35094;-76
2022/12/28 03:03:23;;;;;;;12.43;4.35;;;;;;;3.98;100.00;100938.16;2057620;28;21012;-74
2022/12/28 03:04:54;;;;;;;;;;;;;;;3.97;100.00;100924.03;2050920;28;20913;-74
2022/12/28 03:08:18;;;;;;;9.05;3.72;;;;;;;3.98;100.00;100938.16;2055219;28;20063;-73
2022/12/28 03:09:32;;;;;;;7.65;3.80;;;;;;;3.99;100.00;100924.06;2041930;28;20036;-74
2022/12/28 03:11:03;;;;;;;6.07;3.67;;;;;;;3.98;100.00;100925.84;2058441;28;20042;-76
2022/12/28 03:12:25;;;;;;;8.00;4.40;;;;;;;3.98;100.00;100930.22;2067263;28;20030;-74
2022/12/28 03:13:41;;;;;;;12.50;4.25;;;;;;;3.98;100.00;100922.28;2074029;28;20234;-77
2022/12/28 03:14:54;;;;;;;8.48;4.15;;;;;;;3.99;100.00;100927.59;2063556;28;20043;-74
2022/12/28 03:16:03;;;;;;;11.05;4.00;;;;;;;3.98;100.00;100917.88;2056863;28;20881;-74
2022/12/28 03:31:33;;;;;;;9.10;3.72;;;;;;;4.03;100.00;100902.00;2054913;28;20925;-74
2022/12/28 03:32:41;;;;;;;10.38;4.22;;;;;;;4.03;100.00;100888.75;2060587;28;20101;-76
2022/12/28 03:33:49;;;;;;;11.00;4.40;;;;;;;4.03;100.00;100883.44;2055815;28;20051;-74
2022/12/28 03:34:51;;;;;;;10.25;4.40;;;;;;;4.01;100.00;100891.38;2059470;28;20872;-74
2022/12/28 03:36:22;;;;;;;13.02;4.57;;;;;;;4.03;100.00;100882.56;2063522;28;20046;-74
2022/12/28 03:37:35;;;;;;;8.57;4.43;;;;;;;4.03;100.00;100891.38;2059597;28;20073;-74
2022/12/28 03:39:04;;;;;;;8.80;4.70;;;;;;;4.00;100.00;100892.28;2062569;28;20725;-74
2022/12/28 03:40:51;;;;;;;11.57;4.50;;;;;;;4.01;100.00;100874.59;2056806;28;20043;-75
2022/12/28 03:43:42;;;;;;;8.00;5.32;;;;;;;4.03;100.00;100864.91;2051857;28;20141;-75
2022/12/28 03:45:05;;;;;;;;;;;;;;;4.04;100.00;100864.03;2068257;28;20138;-76
2022/12/28 03:46:37;;;;;;;8.80;4.10;;;;;;;4.08;100.00;100868.44;2058645;28;20842;-75
2022/12/28 03:47:42;;;;;;;10.63;5.07;;;;;;;4.08;100.00;100863.16;2051572;28;20035;-75
2022/12/28 03:48:45;;;;;;;9.32;5.30;;;;;;;4.08;100.00;100863.16;2055796;28;20058;-75
2022/12/28 03:49:48;;;;;;;10.18;5.82;;;;;;;4.09;100.00;100859.63;2055126;28;20031;-75
2022/12/28 03:50:52;;;;;;;11.00;6.15;;;;;;;4.08;100.00;100857.84;2047218;28;21025;-75
2022/12/28 03:51:55;;;;;;;15.18;6.13;;;;;;;4.08;100.00;100847.25;2047555;28;20920;-75
2022/12/28 03:52:57;;;;;;;12.25;5.97;;;;;;;4.08;100.00;100847.25;2046812;28;24813;-75
2022/12/28 03:54:00;;;;;;;11.23;6.18;;;;;;;4.09;100.00;100834.88;2040225;28;21018;-75
2022/12/28 03:55:03;;;;;;;10.57;6.22;;;;;;;4.07;100.00;100826.94;2047623;28;20082;-76
2022/12/28 03:56:16;;;;;;;13.00;6.07;;;;;;;4.08;100.00;100831.34;2048036;28;21260;-75
2022/12/28 03:57:22;;;;;;;10.95;6.22;;;;;;;4.09;100.00;100838.44;2047859;28;20058;-76
2022/12/28 03:58:24;;;;;;;10.48;6.10;;;;;;;4.09;100.00;100824.28;2049518;28;20170;-76
2022/12/28 03:59:26;;;;;;;11.93;6.50;;;;;;;4.09;100.00;100809.28;2055427;28;20239;-76
2022/12/28 04:00:32;;;;;;;12.77;7.05;;;;;;;4.10;100.00;100819.00;2055397;28;20051;-75
2022/12/28 04:01:33;;;;;;;11.65;6.88;;;;;;;4.11;100.00;100815.47;2046870;28;20059;-76
2022/12/28 04:02:37;;;;;;;13.05;7.45;;;;;;;4.11;100.00;100818.13;2055384;28;21041;-76
2022/12/28 04:03:39;;;;;;;11.32;6.90;;;;;;;4.13;100.00;100810.19;2056272;28;20051;-76
2022/12/28 04:04:41;;;;;;;11.90;6.60;;;;;;;4.12;100.00;100811.91;2063549;28;32678;-76
2022/12/28 04:05:43;;;;;;;11.55;7.13;;;;;;;4.14;100.00;100803.97;2063600;28;20051;-76
2022/12/28 04:06:47;;;;;;;14.27;7.47;;;;;;;4.15;100.00;100804.00;2055357;28;20048;-76
2022/12/28 04:07:49;;;;;;;13.48;7.72;;;;;;;4.15;100.00;100801.34;2063515;28;20046;-76
2022/12/28 04:08:51;;;;;;;14.40;7.15;;;;;;;4.17;100.00;100806.66;2072131;28;20046;-75
2022/12/28 04:09:52;;;;;;;12.65;7.55;;;;;;;4.16;100.00;100800.47;2062888;28;20144;-76
2022/12/28 04:10:57;;;;;;;11.52;7.45;;;;;;;4.16;100.00;100797.81;2063142;28;24063;-75
2022/12/28 04:11:59;;;;;;;12.27;7.97;;;;;;;4.19;100.00;100784.56;2055228;28;20043;-76
2022/12/28 04:13:20;;;;;;;12.48;8.02;;;;;;;4.20;100.00;100782.81;2061242;28;20050;-76
2022/12/28 04:14:42;;;;;;;12.90;7.93;;;;;;;4.20;100.00;100780.16;2072124;28;20046;-76
2022/12/28 04:15:54;;;;;;;15.25;7.97;;;;;;;4.21;100.00;100769.53;2063218;28;20042;-77
2022/12/28 04:16:58;;;;;;;13.45;7.97;;;;;;;4.23;100.00;100776.63;2049509;28;20047;-76
2022/12/28 04:18:00;;;;;;;13.77;8.10;;;;;;;4.26;100.00;100769.53;2057340;28;20178;-76
2022/12/28 04:19:02;;;;;;;14.07;8.57;;;;;;;4.27;100.00;100765.13;2063354;28;24105;-76
2022/12/28 04:20:05;;;;;;;13.10;8.35;;;;;;;4.28;100.00;100766.91;2063383;28;20058;-77
2022/12/28 04:21:09;;;;;;;15.68;9.20;;;;;;;4.28;100.00;100767.78;2071471;28;20451;-76
2022/12/28 04:22:13;;;;;;;12.05;8.20;;;;;;;4.28;100.00;100773.06;2062968;28;20043;-76
2022/12/28 04:23:15;;;;;;;17.95;8.98;;;;;;;4.29;100.00;100753.66;2063420;28;20729;-76
2022/12/28 04:24:17;;;;;;;13.85;9.32;;;;;;;4.29;100.00;100768.66;2063059;28;20102;-76
2022/12/28 04:25:19;;;;;;;13.70;9.20;;;;;;;4.29;100.00;100760.69;2063543;28;20035;-76
2022/12/28 04:26:21;;;;;;;13.95;9.30;;;;;;;4.31;100.00;100753.66;2062993;28;20047;-77
2022/12/28 04:27:26;;;;;;;13.77;9.68;;;;;;;4.33;100.00;100762.50;2056356;28;20152;-76
2022/12/28 04:28:34;;;;;;;17.27;10.57;;;;;;;4.34;100.00;100753.63;2055699;28;20098;-76
2022/12/28 04:29:57;;;;;;;14.77;9.65;;;;;;;4.35;100.00;100755.41;2055060;28;20118;-76
2022/12/28 04:31:00;;;;;;;11.73;9.10;;;;;;;4.36;100.00;100741.25;2058935;28;20035;-77
2022/12/28 04:32:04;;;;;;;13.65;9.95;;;;;;;4.37;100.00;100756.28;2063247;28;20055;-76
2022/12/28 04:33:06;;;;;;;13.40;10.40;;;;;;;4.39;100.00;100746.56;2055255;28;20805;-77
2022/12/28 04:34:10;;;;;;;12.82;9.80;;;;;;;4.38;100.00;100755.44;2055068;28;20071;-76
2022/12/28 04:35:18;;;;;;;17.00;11.00;;;;;;;4.42;100.00;100753.66;2048277;28;20900;-76
2022/12/28 04:36:25;;;;;;;15.65;10.98;;;;;;;4.43;100.00;100750.97;2057510;28;20254;-76
2022/12/28 04:37:35;;;;;;;17.25;11.65;;;;;;;4.46;100.00;100750.09;2063126;28;20043;-76
2022/12/28 04:38:40;;;;;;;13.48;10.40;;;;;;;4.46;100.00;100745.69;2063540;28;37730;-76
2022/12/28 04:39:42;;;;;;;15.77;10.95;;;;;;;4.45;100.00;100749.22;2070931;28;34432;-76
2022/12/28 04:40:57;;;;;;;15.00;10.65;;;;;;;4.48;100.00;100751.84;2070877;28;40075;-76
2022/12/28 04:41:58;;;;;;;14.88;10.27;;;;;;;4.49;100.00;100744.81;2071397;28;33316;-75
2022/12/28 04:43:00;;;;;;;17.30;11.05;;;;;;;4.48;100.00;100751.84;2071335;28;32887;-76
2022/12/28 04:44:02;;;;;;;17.05;10.95;;;;;;;4.50;100.00;100752.72;2062448;28;36395;-76
2022/12/28 04:45:04;;;;;;;15.32;11.30;;;;;;;4.50;100.00;100739.47;2062592;28;36498;-76
2022/12/28 04:46:11;;;;;;;14.20;11.77;;;;;;;4.54;100.00;100738.63;2071143;28;37017;-75
2022/12/28 04:47:13;;;;;;;17.77;11.60;;;;;;;4.55;100.00;100743.00;2070995;28;35159;-75
2022/12/28 04:48:15;;;;;;;17.92;11.07;;;;;;;4.57;100.00;100746.53;2071573;28;32071;-75
2022/12/28 04:49:16;;;;;;;15.07;10.77;;;;;;;4.57;100.00;100743.88;2062258;28;38139;-75
2022/12/28 04:50:19;;;;;;;16.63;11.60;;;;;;;4.57;100.00;100738.59;2063301;28;20043;-75
2022/12/28 04:51:25;;;;;;;16.17;11.23;;;;;;;4.60;100.00;100729.75;2063366;28;20117;-75
2022/12/28 04:52:26;;;;;;;18.02;11.52;;;;;;;4.61;100.00;100731.50;2063117;28;41807;-76
2022/12/28 04:53:28;;;;;;;18.10;12.07;;;;;;;4.63;100.00;100724.47;2062418;28;40468;-76
2022/12/28 04:54:30;;;;;;;15.13;11.35;;;;;;;4.65;100.00;100730.63;2062974;28;32934;-75
2022/12/28 04:55:33;;;;;;;16.73;11.45;;;;;;;4.67;100.00;100728.00;2070911;28;39302;-76
2022/12/28 04:56:34;;;;;;;12.77;11.15;;;;;;;4.68;100.00;100729.72;2072119;28;20045;-76
2022/12/28 04:57:36;;;;;;;17.00;11.70;;;;;;;4.70;100.00;100726.22;2070550;28;38959;-75
2022/12/28 04:58:39;;;;;;;16.17;12.15;;;;;;;4.71;100.00;100720.00;2070542;28;40007;-75
2022/12/28 04:59:40;;;;;;;17.67;12.02;;;;;;;4.71;100.00;100721.78;2071212;28;37776;-76
2022/12/28 05:00:42;;;;;;;21.02;12.40;;;;;;;4.71;100.00;100720.00;2071174;28;38281;-76
2022/12/28 05:01:44;;;;;;;14.20;11.65;;;;;;;4.73;100.00;100712.03;2071295;28;37175;-76
2022/12/28 05:02:45;;;;;;;16.08;11.43;;;;;;;4.75;100.00;100712.91;2070935;28;33577;-76
2022/12/28 05:03:48;;;;;;;16.20;11.52;;;;;;;4.78;100.00;100699.66;2070413;28;40216;-76
2022/12/28 05:04:56;;;;;;;14.43;11.95;;;;;;;4.79;100.00;100714.66;2071256;28;39104;-76
2022/12/28 05:06:03;;;;;;;14.63;11.73;;;;;;;4.81;100.00;100710.28;2070823;28;33193;-76
2022/12/28 05:07:08;;;;;;;13.15;11.13;;;;;;;4.83;100.00;100716.44;2071453;28;20038;-76
2022/12/28 05:08:11;;;;;;;14.07;11.90;;;;;;;4.84;100.00;100715.53;2070847;28;40566;-76
2022/12/28 05:09:13;;;;;;;13.88;11.55;;;;;;;4.86;100.00;100718.19;2061889;28;40153;-76
2022/12/28 05:10:15;;;;;;;14.52;11.13;;;;;;;4.87;100.00;100699.63;2062969;28;27319;-76
2022/12/28 05:11:20;;;;;;;12.18;10.65;;;;;;;4.89;100.00;100713.75;2070754;28;39735;-76
2022/12/28 05:12:25;;;;;;;14.35;11.40;;;;;;;4.90;100.00;100714.63;2071016;28;38471;-74
2022/12/28 05:13:27;;;;;;;13.25;11.23;;;;;;;4.94;100.00;100717.28;2072071;28;38577;-74
2022/12/28 05:14:28;;;;;;;13.57;11.13;;;;;;;4.93;100.00;100704.91;2071854;28;34302;-74
2022/12/28 05:15:37;;;;;;;15.27;11.30;;;;;;;4.95;100.00;100720.81;2074499;28;20597;-74
2022/12/28 05:16:39;;;;;;;15.38;10.55;;;;;;;4.95;100.00;100703.16;2072208;28;39767;-74
2022/12/28 05:17:41;;;;;;;11.85;10.73;;;;;;;4.96;100.00;100707.53;2071155;28;36067;-73
2022/12/28 05:18:43;;;;;;;14.07;11.38;;;;;;;4.97;100.00;100711.97;2072801;28;20117;-74
2022/12/28 05:19:45;;;;;;;14.55;10.65;;;;;;;4.98;100.00;100708.41;2068043;28;41413;-74
2022/12/28 05:20:49;;;;;;;11.50;10.30;;;;;;;4.97;100.00;100706.66;2072327;28;41385;-74
2022/12/28 05:21:50;;;;;;;12.57;10.63;;;;;;;5.00;100.00;100718.16;2073045;28;20042;-75
2022/12/28 05:22:52;;;;;;;13.52;10.60;;;;;;;5.01;100.00;100696.03;2072468;28;22699;-75
2022/12/28 05:23:57;;;;;;;12.05;10.38;;;;;;;5.01;100.00;100704.88;2072633;28;20043;-75
2022/12/28 05:24:59;;;;;;;14.27;10.18;;;;;;;5.03;100.00;100704.88;2072339;28;31162;-75
2022/12/28 05:26:01;;;;;;;13.65;9.43;;;;;;;5.05;100.00;100700.44;2071778;28;40108;-74
2022/12/28 05:27:02;;;;;;;10.30;8.88;;;;;;;5.08;100.00;100708.38;2072941;28;20050;-75
2022/12/28 05:28:04;;;;;;;11.63;9.50;;;;;;;5.08;100.00;100696.00;2072165;28;40825;-75
2022/12/28 05:29:06;;;;;;;12.65;9.82;;;;;;;5.10;100.00;100696.88;2072096;28;42695;-74
2022/12/28 05:30:11;;;;;;;10.57;9.32;;;;;;;5.13;100.00;100701.28;2072014;28;38170;-74
2022/12/28 05:31:17;;;;;;;13.60;10.15;;;;;;;5.11;100.00;100697.75;2072045;28;36505;-74
2022/12/28 05:32:19;;;;;;;11.40;10.27;;;;;;;5.11;100.00;100703.06;2072725;28;20158;-74
2022/12/28 05:33:20;;;;;;;9.45;8.43;;;;;;;5.12;100.00;100705.72;2072009;28;42099;-74
2022/12/28 05:34:22;;;;;;;12.73;9.02;;;;;;;5.13;100.00;100702.19;2071795;28;37384;-74
2022/12/28 05:35:24;;;;;;;10.73;8.63;;;;;;;5.13;100.00;100695.97;2072165;28;39530;-74
2022/12/28 05:36:27;;;;;;;10.73;8.90;;;;;;;5.15;100.00;100707.47;2071951;28;37271;-74